Time;durP1;ratioP1;P1;durP2;ratioP2;P2;SDS_P1;SDS_P2;PMS_P1;PMS_P2;Temp;Humidity;BMP_temperature;BMP_pressure;BME280_temperature;BME280_humidity;BME280_pressure;Samples;Min_cycle;Max_cycle;Signal;HPM_P1;HPM_P2
2022/03/17 00:01:07;;;;;;;30.45;26.00;;;;;;;;;;5002089;28;20038;-73
2022/03/17 00:03:34;;;;;;;37.50;29.50;;;;;;;;;;5005185;28;20041;-73
2022/03/17 00:06:02;;;;;;;33.28;27.00;;;;;;;;;;5001729;28;20045;-73
2022/03/17 00:08:29;;;;;;;29.85;22.92;;;;;;;;;;5004277;28;20110;-72
2022/03/17 00:10:56;;;;;;;38.78;30.10;;;;;;;;;;5025465;28;20124;-73
2022/03/17 00:13:24;;;;;;;30.67;23.27;;;;;;;;;;5001161;28;20049;-73
2022/03/17 00:15:51;;;;;;;37.05;26.63;;;;;;;;;;5005237;28;20038;-73
2022/03/17 00:18:18;;;;;;;32.17;25.60;;;;;;;;;;5023306;28;20999;-74
2022/03/17 00:20:46;;;;;;;49.25;32.78;;;;;;;;;;5009270;28;20613;-73
2022/03/17 00:23:13;;;;;;;55.15;33.22;;;;;;;;;;5003264;28;20087;-73
2022/03/17 00:25:41;;;;;;;57.05;34.67;;;;;;;;;;5013646;28;20133;-72
2022/03/17 00:28:10;;;;;;;50.58;32.63;;;;;;;;;;5019817;28;20068;-73
2022/03/17 00:30:37;;;;;;;52.22;32.75;;;;;;;;;;5011307;28;20445;-73
2022/03/17 00:33:05;;;;;;;46.10;30.40;;;;;;;;;;5013664;28;20037;-73
2022/03/17 00:35:35;;;;;;;52.05;34.30;;;;;;;;;;5011344;28;20040;-73
2022/03/17 00:38:04;;;;;;;44.28;29.73;;;;;;;;;;5008054;28;20200;-73
2022/03/17 00:40:32;;;;;;;46.47;31.63;;;;;;;;;;5008504;28;20446;-73
2022/03/17 00:43:01;;;;;;;44.10;29.67;;;;;;;;;;5008870;28;20042;-73
2022/03/17 00:45:28;;;;;;;45.22;31.17;;;;;;;;;;5009480;28;20334;-73
2022/03/17 00:47:55;;;;;;;53.38;30.02;;;;;;;;;;5016169;28;20129;-74
2022/03/17 00:50:23;;;;;;;40.33;29.38;;;;;;;;;;5008644;28;20050;-74
2022/03/17 00:52:50;;;;;;;40.10;29.83;;;;;;;;;;5010849;28;20144;-73
2022/03/17 00:55:18;;;;;;;44.53;31.20;;;;;;;;;;5010420;28;20520;-73
2022/03/17 00:57:45;;;;;;;41.80;30.58;;;;;;;;;;5009926;28;20052;-73
2022/03/17 01:00:14;;;;;;;42.42;31.15;;;;;;;;;;5008931;28;20519;-74
2022/03/17 01:02:42;;;;;;;38.28;28.90;;;;;;;;;;5009694;28;20038;-73
2022/03/17 01:05:10;;;;;;;39.55;29.98;;;;;;;;;;5008665;28;20172;-73
2022/03/17 01:07:38;;;;;;;36.67;27.15;;;;;;;;;;5009228;28;20042;-72
2022/03/17 01:10:09;;;;;;;38.83;28.95;;;;;;;;;;5012815;28;20048;-73
2022/03/17 01:12:36;;;;;;;39.75;30.33;;;;;;;;;;5015238;28;20056;-74
2022/03/17 01:15:04;;;;;;;38.25;28.20;;;;;;;;;;5010784;28;20275;-73
2022/03/17 01:17:31;;;;;;;29.13;23.60;;;;;;;;;;5012222;28;20494;-73
2022/03/17 01:19:59;;;;;;;30.73;25.40;;;;;;;;;;5013070;28;20049;-73
2022/03/17 01:22:26;;;;;;;32.15;26.05;;;;;;;;;;5013950;28;20048;-74
2022/03/17 01:24:53;;;;;;;28.70;22.70;;;;;;;;;;5013027;28;20069;-73
2022/03/17 01:27:23;;;;;;;31.30;25.55;;;;;;;;;;5014068;28;20053;-74
2022/03/17 01:29:51;;;;;;;33.67;26.73;;;;;;;;;;5013693;28;20600;-74
2022/03/17 01:32:19;;;;;;;29.48;24.27;;;;;;;;;;5014859;28;20045;-73
2022/03/17 01:34:46;;;;;;;40.20;30.85;;;;;;;;;;5015187;28;20044;-75
2022/03/17 01:37:14;;;;;;;40.05;30.30;;;;;;;;;;5030616;28;20121;-73
2022/03/17 01:39:41;;;;;;;34.08;25.52;;;;;;;;;;5032922;28;20057;-75
2022/03/17 01:42:09;;;;;;;32.03;25.20;;;;;;;;;;5015810;28;20055;-73
2022/03/17 01:44:38;;;;;;;37.22;28.40;;;;;;;;;;5015125;28;20037;-75
2022/03/17 01:49:51;;;;;;;38.47;30.10;;;;;;;;;;5013377;28;20612;-75
2022/03/17 01:52:19;;;;;;;36.40;28.75;;;;;;;;;;5014821;28;20042;-74
2022/03/17 01:54:46;;;;;;;40.38;31.48;;;;;;;;;;5032227;28;20120;-75
2022/03/17 01:57:14;;;;;;;37.58;29.90;;;;;;;;;;5020098;28;20053;-75
2022/03/17 01:59:41;;;;;;;32.83;28.05;;;;;;;;;;5014781;28;20049;-74
2022/03/17 02:02:10;;;;;;;43.00;30.27;;;;;;;;;;5014042;28;20133;-74
2022/03/17 02:04:40;;;;;;;38.25;29.42;;;;;;;;;;5010390;28;20049;-74
2022/03/17 02:07:09;;;;;;;40.13;30.20;;;;;;;;;;5026581;28;20068;-73
2022/03/17 02:09:37;;;;;;;39.25;31.30;;;;;;;;;;5011989;28;20068;-73
2022/03/17 02:14:51;;;;;;;43.63;29.85;;;;;;;;;;5011128;28;20056;-73
2022/03/17 02:17:19;;;;;;;35.33;28.73;;;;;;;;;;5012083;28;20042;-73
2022/03/17 02:19:47;;;;;;;45.03;34.25;;;;;;;;;;5011787;28;20045;-73
2022/03/17 02:22:16;;;;;;;38.40;30.55;;;;;;;;;;5010621;28;20064;-73
2022/03/17 02:27:31;;;;;;;42.80;32.60;;;;;;;;;;5010783;28;20042;-73
2022/03/17 02:29:59;;;;;;;47.55;34.20;;;;;;;;;;5011872;28;20494;-73
2022/03/17 02:32:26;;;;;;;40.92;31.33;;;;;;;;;;5011757;28;20065;-74
2022/03/17 02:34:57;;;;;;;45.58;34.70;;;;;;;;;;5010829;28;20038;-74
2022/03/17 02:37:24;;;;;;;41.20;32.03;;;;;;;;;;5014252;28;20046;-74
2022/03/17 02:39:51;;;;;;;40.05;32.42;;;;;;;;;;5012141;28;20451;-74
2022/03/17 02:42:19;;;;;;;45.92;33.50;;;;;;;;;;5011442;28;20053;-75
2022/03/17 02:44:47;;;;;;;36.08;27.10;;;;;;;;;;5010335;28;20049;-72
2022/03/17 02:47:14;;;;;;;40.78;32.80;;;;;;;;;;5011790;28;20046;-74
2022/03/17 02:49:41;;;;;;;42.97;33.47;;;;;;;;;;5011740;28;20046;-74
2022/03/17 02:52:09;;;;;;;41.65;32.63;;;;;;;;;;5012989;28;20038;-73
2022/03/17 02:54:36;;;;;;;37.65;29.85;;;;;;;;;;5010427;28;20046;-73
2022/03/17 02:57:06;;;;;;;44.25;33.50;;;;;;;;;;5011501;28;20044;-72
2022/03/17 02:59:33;;;;;;;41.75;32.90;;;;;;;;;;5012780;28;20034;-72
2022/03/17 03:02:04;;;;;;;39.90;30.50;;;;;;;;;;5012462;28;20042;-74
2022/03/17 03:04:35;;;;;;;40.53;32.35;;;;;;;;;;5013202;28;20200;-72
2022/03/17 03:07:02;;;;;;;45.30;33.00;;;;;;;;;;5019182;28;20121;-72
2022/03/17 03:09:30;;;;;;;46.67;34.42;;;;;;;;;;5007722;28;20052;-73
2022/03/17 03:11:57;;;;;;;39.58;30.13;;;;;;;;;;5009681;28;20041;-74
2022/03/17 03:14:24;;;;;;;38.80;30.40;;;;;;;;;;5012589;28;20363;-73
2022/03/17 03:16:52;;;;;;;42.58;33.10;;;;;;;;;;5015809;28;20072;-75
2022/03/17 03:19:19;;;;;;;42.45;33.30;;;;;;;;;;5009680;28;20045;-73
2022/03/17 03:21:47;;;;;;;40.97;32.65;;;;;;;;;;5011671;28;20065;-74
2022/03/17 03:24:15;;;;;;;42.50;32.28;;;;;;;;;;5012034;28;20048;-73
2022/03/17 03:26:43;;;;;;;41.97;31.15;;;;;;;;;;5010666;28;20046;-73
2022/03/17 03:29:23;;;;;;;39.25;31.88;;;;;;;;;;5010627;28;20049;-73
2022/03/17 03:31:51;;;;;;;41.90;32.42;;;;;;;;;;5011258;28;20038;-73
2022/03/17 03:34:19;;;;;;;40.75;32.85;;;;;;;;;;5010655;28;20042;-73
2022/03/17 03:39:33;;;;;;;41.67;31.92;;;;;;;;;;5016338;28;20125;-74
2022/03/17 03:42:01;;;;;;;42.53;32.38;;;;;;;;;;5011899;28;20053;-75
2022/03/17 03:44:28;;;;;;;44.92;32.38;;;;;;;;;;5011474;28;20045;-74
2022/03/17 03:46:55;;;;;;;44.88;33.45;;;;;;;;;;5011883;28;20041;-73
2022/03/17 03:49:23;;;;;;;42.78;32.38;;;;;;;;;;5010621;28;20088;-73
2022/03/17 03:51:50;;;;;;;45.75;33.80;;;;;;;;;;5011795;28;20034;-73
2022/03/17 03:54:18;;;;;;;43.33;31.02;;;;;;;;;;5027028;22;20065;-70
2022/03/17 03:56:46;;;;;;;38.55;28.98;;;;;;;;;;5004395;28;20044;-69
2022/03/17 03:59:19;;;;;;;38.13;28.45;;;;;;;;;;5010065;28;20053;-71
2022/03/17 04:01:48;;;;;;;41.85;31.80;;;;;;;;;;5009063;28;20045;-71
2022/03/17 04:04:19;;;;;;;39.33;31.38;;;;;;;;;;4991490;28;20097;-70
2022/03/17 04:06:58;;;;;;;42.42;32.80;;;;;;;;;;5007227;28;20046;-71
2022/03/17 04:09:29;;;;;;;42.80;32.08;;;;;;;;;;5027362;28;20091;-71
2022/03/17 04:11:57;;;;;;;46.20;33.58;;;;;;;;;;5025964;28;20058;-71
2022/03/17 04:14:25;;;;;;;42.53;30.38;;;;;;;;;;5015650;28;20049;-71
2022/03/17 04:16:52;;;;;;;36.17;28.42;;;;;;;;;;5000555;28;20038;-70
2022/03/17 04:19:20;;;;;;;43.10;31.48;;;;;;;;;;4989308;28;20046;-71
2022/03/17 04:21:48;;;;;;;37.60;30.52;;;;;;;;;;5002053;28;20044;-71
2022/03/17 04:24:15;;;;;;;38.92;29.40;;;;;;;;;;5007282;28;20057;-70
2022/03/17 04:26:44;;;;;;;41.08;30.35;;;;;;;;;;5007531;28;20068;-71
2022/03/17 04:29:12;;;;;;;43.38;33.35;;;;;;;;;;5009150;28;20049;-71
2022/03/17 04:31:40;;;;;;;41.22;30.60;;;;;;;;;;5005709;28;20140;-70
2022/03/17 04:34:08;;;;;;;41.05;31.45;;;;;;;;;;5007191;28;20049;-71
2022/03/17 04:36:36;;;;;;;43.63;32.10;;;;;;;;;;5006765;28;20057;-71
2022/03/17 04:39:04;;;;;;;40.88;30.88;;;;;;;;;;5007962;28;20132;-71
2022/03/17 04:41:32;;;;;;;40.38;31.75;;;;;;;;;;5007613;28;20050;-71
2022/03/17 04:43:59;;;;;;;43.47;32.97;;;;;;;;;;5018134;28;20061;-71
2022/03/17 04:46:26;;;;;;;39.75;30.88;;;;;;;;;;5009281;28;20049;-71
2022/03/17 04:48:54;;;;;;;41.00;30.92;;;;;;;;;;5007888;28;20038;-71
2022/03/17 04:51:21;;;;;;;40.88;31.05;;;;;;;;;;5010473;28;20057;-71
2022/03/17 04:53:49;;;;;;;37.35;29.90;;;;;;;;;;5008064;28;20390;-71
2022/03/17 04:56:20;;;;;;;41.63;30.70;;;;;;;;;;5007085;28;20045;-71
2022/03/17 04:58:47;;;;;;;38.42;28.60;;;;;;;;;;5008030;28;20125;-71
2022/03/17 05:01:15;;;;;;;46.08;32.25;;;;;;;;;;5007367;28;20129;-71
2022/03/17 05:03:43;;;;;;;43.95;33.40;;;;;;;;;;5007417;28;20540;-71
2022/03/17 05:06:14;;;;;;;48.00;35.65;;;;;;;;;;5006910;28;20065;-71
2022/03/17 05:08:41;;;;;;;45.72;34.00;;;;;;;;;;5021242;28;20052;-71
2022/03/17 05:11:20;;;;;;;53.58;39.00;;;;;;;;;;4997105;28;20045;-70
2022/03/17 05:13:48;;;;;;;53.58;37.60;;;;;;;;;;5006167;28;20361;-70
2022/03/17 05:16:16;;;;;;;53.80;40.13;;;;;;;;;;5013966;28;20649;-70
2022/03/17 05:18:44;;;;;;;46.28;37.33;;;;;;;;;;5007291;28;20042;-70
2022/03/17 05:21:12;;;;;;;47.88;37.45;;;;;;;;;;5012238;28;20601;-70
2022/03/17 05:23:39;;;;;;;47.25;35.40;;;;;;;;;;5005951;28;20037;-70
2022/03/17 05:26:07;;;;;;;45.97;33.42;;;;;;;;;;5007989;28;20052;-70
2022/03/17 05:28:35;;;;;;;40.40;30.80;;;;;;;;;;5006361;28;20049;-70
2022/03/17 05:31:02;;;;;;;45.85;33.80;;;;;;;;;;5004855;28;20045;-70
2022/03/17 05:33:31;;;;;;;44.60;32.03;;;;;;;;;;4997933;28;21319;-69
2022/03/17 05:35:58;;;;;;;44.30;30.38;;;;;;;;;;4998350;28;20532;-69
2022/03/17 05:38:25;;;;;;;44.25;33.40;;;;;;;;;;5001666;28;20038;-70
2022/03/17 05:40:53;;;;;;;50.65;35.25;;;;;;;;;;4998787;28;20034;-69
2022/03/17 05:43:20;;;;;;;51.28;33.63;;;;;;;;;;4996569;28;20144;-70
2022/03/17 05:45:47;;;;;;;44.67;33.63;;;;;;;;;;4997979;28;20046;-70
2022/03/17 05:48:15;;;;;;;50.25;37.53;;;;;;;;;;5002701;28;20084;-70
2022/03/17 05:50:45;;;;;;;46.08;33.42;;;;;;;;;;4999108;28;20073;-70
2022/03/17 05:53:12;;;;;;;60.03;36.10;;;;;;;;;;4994574;28;20061;-70
2022/03/17 05:55:39;;;;;;;45.42;32.75;;;;;;;;;;5002863;28;20038;-70
2022/03/17 05:58:07;;;;;;;45.70;32.72;;;;;;;;;;5002786;28;20042;-70
2022/03/17 06:00:35;;;;;;;46.95;33.25;;;;;;;;;;5006472;28;20034;-70
2022/03/17 06:03:04;;;;;;;50.80;32.33;;;;;;;;;;5006708;28;20045;-70
2022/03/17 06:05:31;;;;;;;48.20;34.88;;;;;;;;;;5005966;28;20099;-70
2022/03/17 06:08:03;;;;;;;45.10;33.95;;;;;;;;;;5005512;28;20044;-70
2022/03/17 06:10:34;;;;;;;45.55;35.72;;;;;;;;;;5001053;28;20620;-70
2022/03/17 06:13:02;;;;;;;43.70;34.63;;;;;;;;;;5004610;28;20054;-70
2022/03/17 06:15:31;;;;;;;43.20;31.05;;;;;;;;;;5027136;22;20111;-76
2022/03/17 06:17:59;;;;;;;44.40;32.35;;;;;;;;;;5020543;28;20052;-77
2022/03/17 06:20:29;;;;;;;50.25;38.30;;;;;;;;;;5018368;28;20045;-78
2022/03/17 06:23:00;;;;;;;63.67;47.38;;;;;;;;;;5020952;28;20095;-77
2022/03/17 06:25:29;;;;;;;54.97;40.08;;;;;;;;;;5019914;28;20069;-77
2022/03/17 06:27:57;;;;;;;52.88;37.78;;;;;;;;;;5024514;28;20064;-77
2022/03/17 06:30:26;;;;;;;49.08;37.60;;;;;;;;;;5023792;28;20048;-78
2022/03/17 06:33:07;;;;;;;48.30;35.88;;;;;;;;;;5010381;28;20490;-78
2022/03/17 06:35:35;;;;;;;48.00;35.97;;;;;;;;;;5024777;28;20052;-77
2022/03/17 06:38:06;;;;;;;52.00;35.53;;;;;;;;;;5023991;28;20400;-78
2022/03/17 06:40:35;;;;;;;48.17;33.28;;;;;;;;;;5020376;28;20565;-76
2022/03/17 06:43:03;;;;;;;44.97;32.13;;;;;;;;;;5023576;28;20193;-79
2022/03/17 06:45:30;;;;;;;48.50;35.45;;;;;;;;;;5023721;28;20056;-78
2022/03/17 06:47:58;;;;;;;45.97;33.38;;;;;;;;;;5021469;28;20058;-77
2022/03/17 06:50:26;;;;;;;45.65;33.53;;;;;;;;;;5026844;28;20432;-77
2022/03/17 06:52:55;;;;;;;38.33;29.92;;;;;;;;;;5027069;28;20053;-79
2022/03/17 06:55:23;;;;;;;38.35;31.13;;;;;;;;;;5019880;28;20052;-77
2022/03/17 06:57:50;;;;;;;34.85;28.63;;;;;;;;;;5023874;28;20136;-78
2022/03/17 07:00:18;;;;;;;38.05;30.20;;;;;;;;;;5002201;28;20469;-78
2022/03/17 07:02:46;;;;;;;41.28;30.90;;;;;;;;;;5026337;28;20059;-77
2022/03/17 07:05:14;;;;;;;45.30;31.42;;;;;;;;;;5023105;28;20088;-78
2022/03/17 07:07:43;;;;;;;39.92;29.50;;;;;;;;;;5025428;28;20106;-76
2022/03/17 07:10:11;;;;;;;41.75;31.33;;;;;;;;;;5026667;28;20045;-76
2022/03/17 07:12:41;;;;;;;44.65;30.10;;;;;;;;;;5026077;28;20043;-76
2022/03/17 07:15:09;;;;;;;36.38;26.02;;;;;;;;;;5028602;28;20033;-77
2022/03/17 07:17:39;;;;;;;37.03;28.83;;;;;;;;;;5022504;28;20065;-77
2022/03/17 07:20:10;;;;;;;37.53;29.58;;;;;;;;;;5029319;28;20049;-77
2022/03/17 07:22:39;;;;;;;38.15;29.38;;;;;;;;;;5025964;28;20827;-77
2022/03/17 07:25:09;;;;;;;42.13;32.10;;;;;;;;;;5010773;28;20121;-78
2022/03/17 07:27:40;;;;;;;41.28;29.52;;;;;;;;;;5014839;28;20518;-76
2022/03/17 07:30:09;;;;;;;39.40;28.38;;;;;;;;;;5016470;28;20117;-79
2022/03/17 07:32:38;;;;;;;35.33;27.50;;;;;;;;;;5016534;28;20048;-77
2022/03/17 07:35:06;;;;;;;33.08;24.33;;;;;;;;;;5022407;28;20121;-76
2022/03/17 07:37:34;;;;;;;35.60;27.70;;;;;;;;;;5022955;28;20497;-77
2022/03/17 07:40:01;;;;;;;39.78;27.42;;;;;;;;;;5019407;28;20037;-78
2022/03/17 07:42:29;;;;;;;38.17;29.38;;;;;;;;;;5022862;28;20050;-78
2022/03/17 07:45:25;;;;;;;38.15;29.08;;;;;;;;;;5003720;28;20061;-77
2022/03/17 07:48:11;;;;;;;41.85;28.95;;;;;;;;;;5027375;28;20057;-78
2022/03/17 07:50:47;;;;;;;40.40;28.67;;;;;;;;;;5010292;28;20049;-78
2022/03/17 07:53:14;;;;;;;44.72;27.83;;;;;;;;;;5038939;28;20068;-77
2022/03/17 07:55:42;;;;;;;36.97;27.55;;;;;;;;;;5038995;28;20101;-79
2022/03/17 07:58:13;;;;;;;33.05;26.40;;;;;;;;;;5036806;28;20064;-78
2022/03/17 08:00:42;;;;;;;36.75;25.55;;;;;;;;;;5005790;28;20096;-79
2022/03/17 08:03:09;;;;;;;31.23;24.70;;;;;;;;;;5016979;28;20047;-77
2022/03/17 08:05:37;;;;;;;36.58;24.65;;;;;;;;;;5015802;28;20052;-78
2022/03/17 08:08:05;;;;;;;32.25;25.52;;;;;;;;;;5020461;28;20037;-78
2022/03/17 08:10:32;;;;;;;32.45;23.65;;;;;;;;;;5013648;28;20045;-78
2022/03/17 08:13:02;;;;;;;36.75;25.92;;;;;;;;;;5017116;28;20040;-77
2022/03/17 08:15:29;;;;;;;32.65;25.27;;;;;;;;;;5011883;28;21728;-77
2022/03/17 08:17:56;;;;;;;33.38;23.52;;;;;;;;;;5015161;28;20049;-78
2022/03/17 08:20:25;;;;;;;29.80;24.77;;;;;;;;;;5018502;28;20046;-76
2022/03/17 08:22:55;;;;;;;35.47;23.67;;;;;;;;;;5014312;28;20116;-76
2022/03/17 08:25:22;;;;;;;29.30;22.98;;;;;;;;;;5018878;28;20485;-78
2022/03/17 08:27:54;;;;;;;32.80;23.13;;;;;;;;;;5019928;28;20783;-78
2022/03/17 08:30:22;;;;;;;30.00;23.60;;;;;;;;;;5021860;28;20140;-78
2022/03/17 08:32:50;;;;;;;38.85;23.35;;;;;;;;;;5019049;28;20037;-78
2022/03/17 08:35:17;;;;;;;30.13;19.88;;;;;;;;;;5014461;28;20100;-77
2022/03/17 08:37:46;;;;;;;30.02;22.10;;;;;;;;;;5010946;28;20088;-77
2022/03/17 08:40:14;;;;;;;35.22;19.67;;;;;;;;;;5014054;28;20060;-77
2022/03/17 08:42:41;;;;;;;28.85;20.20;;;;;;;;;;5017720;28;20472;-76
2022/03/17 08:50:43;;;;;;;21.70;17.38;;;;;;;;;;5015638;28;20446;-76
2022/03/17 08:53:10;;;;;;;16.23;13.27;;;;;;;;;;5003059;28;20486;-77
2022/03/17 08:55:39;;;;;;;18.73;12.80;;;;;;;;;;5014841;28;20136;-77
2022/03/17 08:58:07;;;;;;;19.45;13.70;;;;;;;;;;5015826;28;20044;-77
2022/03/17 09:00:35;;;;;;;22.83;13.90;;;;;;;;;;5013099;28;20049;-77
2022/03/17 09:03:03;;;;;;;16.50;12.63;;;;;;;;;;5016780;28;20116;-77
2022/03/17 09:05:33;;;;;;;17.95;11.63;;;;;;;;;;5017476;28;20056;-77
2022/03/17 09:08:05;;;;;;;17.58;11.73;;;;;;;;;;5001119;28;20042;-78
2022/03/17 09:10:34;;;;;;;16.63;11.80;;;;;;;;;;5015679;28;20037;-78
2022/03/17 09:13:07;;;;;;;18.73;11.88;;;;;;;;;;4997758;28;20050;-80
2022/03/17 09:15:36;;;;;;;14.15;10.32;;;;;;;;;;5021376;28;20046;-78
2022/03/17 09:18:07;;;;;;;14.88;10.65;;;;;;;;;;5023907;28;20092;-78
2022/03/17 09:20:36;;;;;;;13.20;9.18;;;;;;;;;;5007016;28;20034;-78
2022/03/17 09:23:03;;;;;;;14.60;9.77;;;;;;;;;;5029644;28;20042;-78
2022/03/17 09:25:31;;;;;;;9.57;8.57;;;;;;;;;;5008301;28;20045;-77
2022/03/17 09:28:00;;;;;;;7.88;7.05;;;;;;;;;;5020180;28;20128;-77
2022/03/17 09:30:28;;;;;;;10.27;6.50;;;;;;;;;;5011211;28;20136;-78
2022/03/17 09:32:56;;;;;;;13.77;7.60;;;;;;;;;;5034266;28;20051;-77
2022/03/17 09:35:23;;;;;;;14.18;6.85;;;;;;;;;;5027843;28;20045;-78
2022/03/17 09:37:51;;;;;;;7.47;6.57;;;;;;;;;;5024593;28;20095;-77
2022/03/17 09:40:19;;;;;;;11.80;6.35;;;;;;;;;;5022047;28;20144;-78
2022/03/17 09:42:47;;;;;;;10.85;6.70;;;;;;;;;;5032142;28;20064;-78
2022/03/17 09:45:15;;;;;;;7.15;6.18;;;;;;;;;;5030680;28;20037;-79
2022/03/17 09:47:44;;;;;;;14.60;5.68;;;;;;;;;;5032724;28;20116;-79
2022/03/17 09:50:14;;;;;;;8.68;6.30;;;;;;;;;;5030547;28;20052;-79
2022/03/17 09:52:42;;;;;;;10.65;5.95;;;;;;;;;;5031253;28;20049;-78
2022/03/17 09:55:10;;;;;;;8.63;5.38;;;;;;;;;;5014877;23;20087;-82
2022/03/17 10:01:31;;;;;;;9.75;5.63;;;;;;;;;;5014674;28;20056;-83
2022/03/17 10:04:13;;;;;;;9.70;6.05;;;;;;;;;;5008220;28;20041;-82
2022/03/17 10:07:01;;;;;;;6.68;5.68;;;;;;;;;;5019270;28;20041;-85
2022/03/17 10:09:38;;;;;;;9.43;5.82;;;;;;;;;;5015191;28;20144;-82
2022/03/17 10:12:20;;;;;;;10.82;4.90;;;;;;;;;;5017281;28;20065;-82
2022/03/17 10:14:55;;;;;;;6.93;5.43;;;;;;;;;;5016313;28;20049;-82
2022/03/17 10:17:48;;;;;;;7.18;5.70;;;;;;;;;;5012594;28;20081;-83
2022/03/17 10:20:46;;;;;;;13.75;5.80;;;;;;;;;;5015178;28;20452;-82
2022/03/17 10:24:04;;;;;;;6.30;5.70;;;;;;;;;;5020837;28;20042;-82
2022/03/17 10:26:59;;;;;;;11.65;5.90;;;;;;;;;;5021833;28;20807;-82
2022/03/17 10:33:40;;;;;;;5.10;4.53;;;;;;;;;;5009548;28;20113;-83
2022/03/17 10:40:40;;;;;;;15.85;6.50;;;;;;;;;;4955551;29;20083;-82
2022/03/17 10:50:50;;;;;;;7.93;5.13;;;;;;;;;;4990275;28;20082;-83
2022/03/17 11:02:25;;;;;;;14.77;12.87;;;;;;;;;;4947699;29;20079;-83
2022/03/17 11:10:10;;;;;;;13.43;11.05;;;;;;;;;;4911942;22;20096;-76
2022/03/17 11:12:37;;;;;;;15.73;10.75;;;;;;;;;;5023701;28;20049;-75
2022/03/17 11:15:05;;;;;;;12.70;10.43;;;;;;;;;;5027572;28;20037;-76
2022/03/17 11:17:37;;;;;;;17.67;12.07;;;;;;;;;;5025485;28;20413;-76
2022/03/17 11:20:06;;;;;;;16.77;11.52;;;;;;;;;;5026146;28;20107;-75
2022/03/17 11:22:34;;;;;;;13.15;10.77;;;;;;;;;;5026488;28;20046;-76
2022/03/17 11:25:18;;;;;;;18.42;11.85;;;;;;;;;;5021086;28;20070;-75
2022/03/17 11:27:46;;;;;;;15.77;10.20;;;;;;;;;;5023357;28;20068;-75
2022/03/17 11:30:17;;;;;;;12.90;11.25;;;;;;;;;;5024369;28;20054;-76
2022/03/17 11:32:55;;;;;;;13.68;11.40;;;;;;;;;;5023207;28;20050;-76
2022/03/17 11:35:26;;;;;;;15.13;11.25;;;;;;;;;;5006694;28;20052;-76
2022/03/17 11:38:13;;;;;;;13.80;10.07;;;;;;;;;;5024569;28;20046;-76
2022/03/17 11:40:58;;;;;;;11.13;9.93;;;;;;;;;;5025627;28;20047;-75
2022/03/17 11:43:47;;;;;;;11.75;9.80;;;;;;;;;;5039117;28;20408;-75
2022/03/17 11:46:18;;;;;;;14.90;11.10;;;;;;;;;;5036356;28;20076;-75
2022/03/17 11:48:47;;;;;;;11.32;10.18;;;;;;;;;;5014163;28;20155;-76
2022/03/17 11:51:15;;;;;;;13.02;11.13;;;;;;;;;;5020814;28;20679;-75
2022/03/17 11:53:52;;;;;;;13.25;11.63;;;;;;;;;;5031731;28;20124;-75
2022/03/17 11:56:28;;;;;;;19.83;11.63;;;;;;;;;;5026440;28;20069;-76
2022/03/17 11:58:55;;;;;;;15.65;11.05;;;;;;;;;;5019045;28;20095;-77
2022/03/17 12:01:27;;;;;;;12.27;10.45;;;;;;;;;;5024248;28;20042;-76
2022/03/17 12:03:59;;;;;;;14.18;10.38;;;;;;;;;;5016964;28;20140;-76
2022/03/17 12:06:27;;;;;;;12.35;10.63;;;;;;;;;;4988342;28;20047;-76
2022/03/17 12:09:00;;;;;;;15.15;10.10;;;;;;;;;;5026679;28;20046;-76
2022/03/17 12:11:29;;;;;;;13.48;9.98;;;;;;;;;;5027225;28;20100;-76
2022/03/17 12:14:14;;;;;;;13.02;10.45;;;;;;;;;;5025050;28;20497;-77
2022/03/17 12:16:42;;;;;;;14.32;10.07;;;;;;;;;;5025404;28;20060;-76
2022/03/17 12:19:23;;;;;;;12.65;9.95;;;;;;;;;;5025772;28;20425;-76
2022/03/17 12:22:03;;;;;;;13.75;9.40;;;;;;;;;;5025403;28;20119;-76
2022/03/17 12:24:50;;;;;;;15.95;10.13;;;;;;;;;;5026373;28;20127;-76
2022/03/17 12:27:19;;;;;;;12.27;9.45;;;;;;;;;;5025508;28;20041;-76
2022/03/17 12:29:48;;;;;;;11.70;8.68;;;;;;;;;;5025208;28;20049;-76
2022/03/17 12:32:20;;;;;;;12.90;8.50;;;;;;;;;;5023575;28;20053;-76
2022/03/17 12:34:48;;;;;;;14.07;8.40;;;;;;;;;;5024238;28;20049;-76
2022/03/17 12:37:16;;;;;;;11.55;9.63;;;;;;;;;;5024126;28;20080;-76
2022/03/17 12:39:47;;;;;;;11.13;8.45;;;;;;;;;;5026121;28;20149;-76
2022/03/17 12:42:21;;;;;;;14.35;8.70;;;;;;;;;;5026904;28;20045;-76
2022/03/17 12:44:50;;;;;;;11.95;8.55;;;;;;;;;;5023338;28;20069;-76
2022/03/17 12:47:19;;;;;;;15.35;9.05;;;;;;;;;;5020728;28;20054;-76
2022/03/17 12:49:46;;;;;;;8.77;7.88;;;;;;;;;;5026723;28;20076;-77
2022/03/17 12:52:21;;;;;;;9.02;7.95;;;;;;;;;;5026301;28;20587;-76
2022/03/17 12:54:50;;;;;;;11.98;8.35;;;;;;;;;;5023923;28;20049;-76
2022/03/17 12:57:20;;;;;;;8.88;7.03;;;;;;;;;;5025916;28;20041;-76
2022/03/17 12:59:48;;;;;;;9.82;8.05;;;;;;;;;;5026998;28;20128;-76
2022/03/17 13:02:17;;;;;;;9.35;8.35;;;;;;;;;;5025066;28;20043;-76
2022/03/17 13:04:46;;;;;;;8.57;7.78;;;;;;;;;;5027155;28;20073;-76
2022/03/17 13:07:16;;;;;;;10.23;7.63;;;;;;;;;;5030671;28;20096;-76
2022/03/17 13:09:45;;;;;;;15.75;8.57;;;;;;;;;;5031499;28;20048;-76
2022/03/17 13:15:10;;;;;;;12.35;8.45;;;;;;;;;;5031212;28;20111;-76
2022/03/17 13:17:50;;;;;;;8.85;7.85;;;;;;;;;;5021316;28;20056;-76
2022/03/17 13:20:21;;;;;;;13.48;8.38;;;;;;;;;;5029579;28;20053;-76
2022/03/17 13:23:02;;;;;;;11.38;7.50;;;;;;;;;;5021430;28;20041;-77
2022/03/17 13:25:31;;;;;;;14.30;8.38;;;;;;;;;;5027875;28;20561;-76
2022/03/17 13:28:03;;;;;;;10.90;8.00;;;;;;;;;;5030449;28;20464;-76
2022/03/17 13:30:34;;;;;;;8.50;7.70;;;;;;;;;;5030364;28;20498;-76
2022/03/17 13:33:03;;;;;;;12.10;6.60;;;;;;;;;;5029574;28;20424;-75
2022/03/17 13:35:35;;;;;;;9.38;5.63;;;;;;;;;;5030979;28;20496;-75
2022/03/17 13:38:08;;;;;;;8.18;6.03;;;;;;;;;;5029805;28;20464;-76
2022/03/17 13:41:00;;;;;;;10.02;6.28;;;;;;;;;;5030788;28;20065;-76
2022/03/17 13:43:28;;;;;;;8.68;6.85;;;;;;;;;;5029548;28;20075;-75
2022/03/17 13:45:56;;;;;;;6.15;5.65;;;;;;;;;;5027801;28;20493;-76
2022/03/17 13:48:24;;;;;;;10.38;6.03;;;;;;;;;;5030231;28;20041;-75
2022/03/17 13:50:57;;;;;;;9.63;6.65;;;;;;;;;;5004975;28;20400;-76
2022/03/17 13:53:40;;;;;;;9.93;7.05;;;;;;;;;;5027981;28;20038;-76
2022/03/17 13:56:09;;;;;;;13.18;6.35;;;;;;;;;;5026916;28;20397;-76
2022/03/17 13:58:37;;;;;;;11.77;6.95;;;;;;;;;;5016690;28;20970;-76
2022/03/17 14:01:15;;;;;;;12.57;9.50;;;;;;;;;;5015662;28;20041;-76
2022/03/17 14:03:50;;;;;;;12.90;6.20;;;;;;;;;;5015444;28;20046;-76
2022/03/17 14:06:18;;;;;;;12.13;6.30;;;;;;;;;;5015683;28;20133;-76
2022/03/17 14:08:53;;;;;;;9.40;5.70;;;;;;;;;;5015965;28;20433;-76
2022/03/17 14:11:21;;;;;;;12.18;6.93;;;;;;;;;;5015123;28;20133;-76
2022/03/17 14:13:50;;;;;;;7.28;6.57;;;;;;;;;;5017179;28;20037;-76
2022/03/17 14:16:18;;;;;;;16.55;5.82;;;;;;;;;;5016264;28;20048;-76
2022/03/17 14:18:47;;;;;;;6.40;5.32;;;;;;;;;;5014011;28;20221;-76
2022/03/17 14:21:16;;;;;;;11.10;7.13;;;;;;;;;;5014890;28;20512;-76
2022/03/17 14:26:33;;;;;;;8.13;6.30;;;;;;;;;;5015642;28;20509;-76
2022/03/17 14:29:01;;;;;;;8.98;6.35;;;;;;;;;;5015229;28;20049;-76
2022/03/17 14:31:30;;;;;;;8.18;6.25;;;;;;;;;;5015122;28;20178;-76
2022/03/17 14:33:59;;;;;;;10.70;6.47;;;;;;;;;;5015645;28;20049;-76
2022/03/17 14:36:30;;;;;;;7.68;6.30;;;;;;;;;;5013722;28;20056;-76
2022/03/17 14:38:59;;;;;;;8.80;5.75;;;;;;;;;;5015152;28;20043;-76
2022/03/17 14:41:27;;;;;;;8.82;5.90;;;;;;;;;;5018780;28;20060;-76
2022/03/17 14:43:58;;;;;;;6.63;5.93;;;;;;;;;;5010552;28;20045;-77
2022/03/17 14:46:27;;;;;;;11.57;5.65;;;;;;;;;;5015451;28;20165;-76
2022/03/17 14:48:56;;;;;;;11.30;6.88;;;;;;;;;;5016026;28;20041;-76
2022/03/17 14:51:24;;;;;;;14.38;7.13;;;;;;;;;;5014626;28;20508;-76
2022/03/17 14:53:53;;;;;;;9.48;6.68;;;;;;;;;;5016364;28;20050;-76
2022/03/17 14:56:21;;;;;;;13.02;6.38;;;;;;;;;;5015594;28;20592;-76
2022/03/17 14:58:49;;;;;;;7.15;6.45;;;;;;;;;;5014011;28;20046;-76
2022/03/17 15:01:18;;;;;;;11.60;6.63;;;;;;;;;;4996495;28;20140;-76
2022/03/17 15:03:46;;;;;;;13.10;6.35;;;;;;;;;;5015071;28;20111;-76
2022/03/17 15:06:14;;;;;;;12.35;6.88;;;;;;;;;;5010975;28;20068;-76
2022/03/17 15:08:42;;;;;;;10.57;6.18;;;;;;;;;;5014645;28;20065;-76
2022/03/17 15:11:12;;;;;;;6.80;6.03;;;;;;;;;;5018175;28;20050;-76
2022/03/17 15:13:40;;;;;;;12.80;6.90;;;;;;;;;;4996715;28;20583;-76
2022/03/17 15:16:07;;;;;;;13.20;6.82;;;;;;;;;;5015221;28;20049;-76
2022/03/17 15:18:35;;;;;;;9.77;6.18;;;;;;;;;;5015371;28;20034;-76
2022/03/17 15:21:03;;;;;;;11.85;6.45;;;;;;;;;;5013885;28;20124;-76
2022/03/17 15:23:34;;;;;;;10.63;6.65;;;;;;;;;;5017427;28;20069;-76
2022/03/17 15:26:01;;;;;;;10.50;6.32;;;;;;;;;;5012477;28;20045;-76
2022/03/17 15:31:15;;;;;;;8.40;6.95;;;;;;;;;;5014948;28;20065;-76
2022/03/17 15:33:43;;;;;;;13.90;7.47;;;;;;;;;;5013928;28;20611;-76
2022/03/17 15:36:10;;;;;;;8.95;7.68;;;;;;;;;;5013136;28;20064;-77
2022/03/17 15:38:40;;;;;;;8.90;7.60;;;;;;;;;;5009054;28;20501;-76